Time;durP1;ratioP1;P1;durP2;ratioP2;P2;SDS_P1;SDS_P2;PMS_P1;PMS_P2;Temp;Humidity;BMP_temperature;BMP_pressure;BME280_temperature;BME280_humidity;BME280_pressure;Samples;Min_cycle;Max_cycle;Signal;HPM_P1;HPM_P2
2023/07/11 00:02:56;;;;;;;4.80;3.25;;;;;;;18.54;65.30;101623.22;10454446;28;20029;-71
2023/07/11 00:07:56;;;;;;;4.93;2.42;;;;;;;18.54;65.59;101623.22;10457292;28;20071;-70
2023/07/11 00:12:57;;;;;;;5.68;2.35;;;;;;;18.61;67.77;101620.38;10455081;28;20029;-70
2023/07/11 00:17:58;;;;;;;13.10;2.13;;;;;;;18.62;69.53;101608.31;10455145;28;20033;-70
2023/07/11 00:22:58;;;;;;;2.85;2.45;;;;;;;18.62;68.82;101608.31;10453607;28;20073;-71
2023/07/11 00:27:58;;;;;;;3.42;2.47;;;;;;;18.65;69.51;101607.84;10453265;28;20028;-71
2023/07/11 00:32:59;;;;;;;22.30;2.85;;;;;;;18.64;70.22;101586.16;10452207;28;20508;-70
2023/07/11 00:37:59;;;;;;;3.15;2.33;;;;;;;18.63;69.98;101588.03;10451629;28;20049;-70
2023/07/11 00:43:00;;;;;;;1.77;1.67;;;;;;;18.63;69.00;101593.53;10452949;28;20423;-70
2023/07/11 00:48:01;;;;;;;6.10;3.20;;;;;;;18.63;69.35;101576.25;10453894;28;20048;-71
2023/07/11 00:53:02;;;;;;;4.70;2.60;;;;;;;18.67;70.20;101571.97;10453063;28;20043;-70
2023/07/11 00:58:02;;;;;;;7.57;2.67;;;;;;;18.62;70.77;101560.88;10468912;28;20098;-71
2023/07/11 01:03:02;;;;;;;3.88;1.95;;;;;;;18.58;72.03;101560.50;10451756;28;20044;-71
2023/07/11 01:08:03;;;;;;;2.60;2.13;;;;;;;18.52;72.43;101547.72;10468537;28;20112;-71
2023/07/11 01:13:04;;;;;;;4.32;2.47;;;;;;;18.46;72.25;101551.41;10451894;28;20029;-70
2023/07/11 01:18:04;;;;;;;6.70;2.45;;;;;;;18.39;72.90;101547.94;10468249;28;20037;-69
2023/07/11 01:23:05;;;;;;;5.72;2.97;;;;;;;18.35;73.71;101544.81;10452888;28;20044;-70
2023/07/11 01:28:05;;;;;;;2.58;2.00;;;;;;;18.30;73.74;101528.22;10434514;28;20029;-70
2023/07/11 01:33:06;;;;;;;4.30;2.08;;;;;;;18.27;75.13;101513.06;10428640;28;20086;-70
2023/07/11 01:38:06;;;;;;;2.50;2.08;;;;;;;18.28;75.54;101503.78;10425764;28;20050;-70
2023/07/11 01:43:06;;;;;;;3.22;1.98;;;;;;;18.29;76.34;101505.47;10426023;28;20080;-71
2023/07/11 01:48:07;;;;;;;6.40;2.85;;;;;;;18.29;77.27;101499.13;10410861;28;20042;-71
2023/07/11 01:53:07;;;;;;;8.90;2.20;;;;;;;18.24;76.88;101480.63;10425799;28;20091;-70
2023/07/11 01:58:08;;;;;;;3.92;3.42;;;;;;;18.20;77.13;101478.59;10408741;28;20061;-70
2023/07/11 02:03:09;;;;;;;4.18;2.53;;;;;;;18.15;78.04;101473.81;10407929;28;20079;-69
2023/07/11 02:08:09;;;;;;;3.45;2.45;;;;;;;18.12;83.46;101463.31;10409676;28;20033;-70
2023/07/11 02:13:10;;;;;;;10.45;2.80;;;;;;;18.12;81.14;101449.59;10391511;28;20041;-70
2023/07/11 02:18:10;;;;;;;3.53;2.13;;;;;;;18.05;79.32;101448.88;10391290;28;20033;-71
2023/07/11 02:23:12;;;;;;;2.00;1.88;;;;;;;18.01;80.60;101443.03;10407890;28;20087;-71
2023/07/11 02:28:12;;;;;;;7.13;2.55;;;;;;;17.99;83.53;101436.94;10409013;28;20083;-71
2023/07/11 02:33:12;;;;;;;15.43;3.20;;;;;;;18.01;86.34;101431.25;10408751;28;20147;-71
2023/07/11 02:38:13;;;;;;;6.30;3.13;;;;;;;17.93;88.40;101415.94;10408839;28;20508;-71
2023/07/11 02:43:15;;;;;;;2.47;2.28;;;;;;;17.92;89.17;101419.78;10409150;28;20041;-70
2023/07/11 02:48:15;;;;;;;4.65;2.92;;;;;;;17.97;88.16;101413.59;10423915;28;20412;-71
2023/07/11 02:53:15;;;;;;;3.20;2.83;;;;;;;17.93;88.80;101407.72;10406895;28;20040;-71
2023/07/11 02:58:16;;;;;;;3.05;2.22;;;;;;;18.00;91.16;101413.16;10408271;28;20072;-71
2023/07/11 03:03:17;;;;;;;5.65;2.65;;;;;;;18.02;90.05;101395.38;10423310;28;20068;-70
2023/07/11 03:08:17;;;;;;;4.15;2.10;;;;;;;18.00;88.38;101396.69;10407824;28;20116;-70
2023/07/11 03:13:20;;;;;;;2.55;2.35;;;;;;;18.03;89.84;101393.50;10406337;28;20044;-71
2023/07/11 03:18:21;;;;;;;4.30;2.60;;;;;;;18.01;90.55;101381.91;10407937;28;20461;-70
2023/07/11 03:23:21;;;;;;;2.72;2.03;;;;;;;18.00;89.94;101372.88;10390414;28;20124;-71
2023/07/11 03:28:22;;;;;;;2.70;2.50;;;;;;;17.95;91.28;101371.91;10408287;28;20116;-71
2023/07/11 03:33:22;;;;;;;4.07;2.33;;;;;;;17.95;91.50;101366.41;10407091;28;20049;-71
2023/07/11 03:38:22;;;;;;;2.53;2.08;;;;;;;17.89;94.10;101352.56;10406174;28;20061;-70
2023/07/11 03:43:23;;;;;;;4.53;2.20;;;;;;;17.83;92.72;101348.03;10406249;28;20050;-71
2023/07/11 03:48:23;;;;;;;3.58;2.20;;;;;;;17.86;92.62;101346.72;10407967;28;20055;-70
2023/07/11 03:53:24;;;;;;;5.60;1.92;;;;;;;17.86;94.15;101346.72;10409616;28;20029;-71
2023/07/11 03:58:24;;;;;;;5.88;2.08;;;;;;;17.92;93.02;101339.47;10407740;28;20073;-70
2023/07/11 04:03:25;;;;;;;2.13;1.98;;;;;;;17.99;90.48;101348.41;10406498;28;20042;-70
2023/07/11 04:08:25;;;;;;;3.08;1.98;;;;;;;18.04;93.62;101338.44;10407447;28;20045;-70
2023/07/11 04:13:26;;;;;;;1.60;1.50;;;;;;;18.12;93.08;101323.53;10412870;28;20535;-71
2023/07/11 04:18:26;;;;;;;5.35;1.88;;;;;;;18.16;90.98;101319.25;10413974;28;20037;-70
2023/07/11 04:23:27;;;;;;;6.10;3.00;;;;;;;18.25;91.20;101322.47;10413607;28;20045;-71
2023/07/11 04:28:27;;;;;;;3.63;2.10;;;;;;;18.36;90.99;101318.91;10412352;28;20042;-71
2023/07/11 04:33:27;;;;;;;4.55;2.45;;;;;;;18.45;89.62;101311.97;10413070;28;20045;-70
2023/07/11 04:38:28;;;;;;;2.95;1.95;;;;;;;18.53;88.28;101308.03;10428627;28;20053;-71
2023/07/11 04:43:29;;;;;;;4.20;2.85;;;;;;;18.58;89.15;101297.19;10413599;28;20037;-70
2023/07/11 04:48:30;;;;;;;1.75;1.65;;;;;;;18.72;87.15;101298.59;10412660;28;20092;-70
2023/07/11 04:53:32;;;;;;;2.55;2.00;;;;;;;19.10;87.34;101288.94;10413326;28;20037;-71
2023/07/11 04:58:33;;;;;;;2.22;2.03;;;;;;;19.70;85.11;101280.19;10378088;28;20033;-70
2023/07/11 05:03:33;;;;;;;5.65;2.65;;;;;;;20.04;84.32;101271.06;10411564;28;20037;-70
2023/07/11 05:08:34;;;;;;;4.03;2.08;;;;;;;19.81;84.03;101259.19;10412141;28;20075;-70
2023/07/11 05:13:34;;;;;;;4.75;1.90;;;;;;;20.36;83.36;101263.06;10394790;28;20127;-70
2023/07/11 05:18:35;;;;;;;4.32;2.22;;;;;;;20.93;80.34;101251.69;10410405;28;20362;-71
2023/07/11 05:23:35;;;;;;;11.40;2.03;;;;;;;20.70;80.17;101257.44;10410890;28;20068;-69
2023/07/11 05:28:36;;;;;;;7.25;1.67;;;;;;;21.22;78.82;101243.16;10411561;28;20639;-70
2023/07/11 05:33:37;;;;;;;2.47;2.28;;;;;;;21.40;78.46;101231.78;10410268;28;20042;-69
2023/07/11 05:38:37;;;;;;;9.65;2.60;;;;;;;21.59;77.54;101238.56;10408664;28;20053;-70
2023/07/11 05:43:37;;;;;;;16.88;2.17;;;;;;;22.87;73.44;101227.47;10410412;28;20033;-70
2023/07/11 05:48:38;;;;;;;6.10;1.92;;;;;;;23.01;68.95;101222.28;10410015;28;20052;-70
2023/07/11 05:53:38;;;;;;;8.07;3.08;;;;;;;23.47;68.01;101214.88;10391926;28;20385;-69
2023/07/11 05:58:39;;;;;;;3.90;2.45;;;;;;;24.23;62.35;101213.13;10408520;28;20128;-75
2023/07/11 06:03:45;;;;;;;4.15;2.80;;;;;;;24.85;59.09;101209.00;10409650;28;20370;-73
2023/07/11 06:08:46;;;;;;;2.17;2.00;;;;;;;25.11;57.73;101195.84;10409997;28;20029;-72
2023/07/11 06:13:46;;;;;;;2.60;2.40;;;;;;;25.80;57.35;101198.59;10391418;28;20049;-72
2023/07/11 06:18:47;;;;;;;5.07;2.88;;;;;;;26.61;55.18;101203.28;10408741;28;20450;-68
2023/07/11 06:23:48;;;;;;;2.78;2.17;;;;;;;27.07;54.37;101193.44;10372173;28;20042;-64
2023/07/11 06:28:48;;;;;;;3.90;2.67;;;;;;;27.11;51.58;101184.19;10424155;28;20456;-70
2023/07/11 06:33:50;;;;;;;16.02;3.30;;;;;;;27.28;50.69;101193.97;10405763;28;20040;-73
2023/07/11 06:38:50;;;;;;;6.45;2.90;;;;;;;27.96;51.69;101186.97;10447978;28;20547;-68
2023/07/11 06:43:52;;;;;;;4.20;2.60;;;;;;;28.68;48.77;101181.56;10445036;28;20175;-68
2023/07/11 06:48:54;;;;;;;6.28;3.72;;;;;;;28.80;46.86;101180.22;10407109;28;20136;-72
2023/07/11 06:53:55;;;;;;;3.22;2.28;;;;;;;29.04;44.76;101178.03;10407390;28;20036;-72
2023/07/11 06:58:55;;;;;;;2.70;2.45;;;;;;;29.02;43.92;101174.72;10423579;28;20033;-71
2023/07/11 07:03:55;;;;;;;3.88;3.15;;;;;;;29.23;43.43;101175.06;10416417;28;20116;-71
2023/07/11 07:08:56;;;;;;;5.65;3.38;;;;;;;29.54;44.77;101177.84;10449888;28;20121;-71
2023/07/11 07:13:56;;;;;;;5.53;2.95;;;;;;;29.84;43.64;101158.69;10447170;28;20025;-69
2023/07/11 07:18:57;;;;;;;3.20;2.88;;;;;;;29.96;43.39;101169.25;10448961;28;20048;-70
2023/07/11 07:23:57;;;;;;;2.33;2.13;;;;;;;30.34;44.12;101169.56;10416203;28;20053;-70
2023/07/11 07:28:58;;;;;;;6.65;3.53;;;;;;;30.46;42.83;101177.31;10407165;28;20045;-69
2023/07/11 07:33:58;;;;;;;8.30;3.08;;;;;;;30.29;41.17;101180.91;10406467;28;20048;-70
2023/07/11 07:38:59;;;;;;;4.45;3.00;;;;;;;30.43;42.63;101183.56;10389310;28;20045;-73
2023/07/11 07:44:00;;;;;;;4.85;2.38;;;;;;;30.32;41.11;101180.25;10409035;28;20026;-73
2023/07/11 07:49:00;;;;;;;5.65;3.70;;;;;;;30.90;41.75;101161.47;10416169;28;20083;-68
2023/07/11 07:54:00;;;;;;;8.30;2.20;;;;;;;31.08;39.72;101157.50;10433674;28;20161;-71
2023/07/11 07:59:01;;;;;;;5.40;2.67;;;;;;;31.34;40.25;101163.09;10415434;28;20030;-75
2023/07/11 08:04:02;;;;;;;3.17;2.88;;;;;;;31.66;38.82;101158.91;10414938;28;20143;-73
2023/07/11 08:09:02;;;;;;;4.43;1.85;;;;;;;31.38;39.99;101160.47;10414456;28;20045;-75
2023/07/11 08:14:04;;;;;;;5.18;2.53;;;;;;;31.89;40.15;101147.47;10414291;28;20413;-73
2023/07/11 08:19:06;;;;;;;14.25;3.63;;;;;;;32.41;39.81;101136.78;10414221;28;20045;-71
2023/07/11 08:24:07;;;;;;;4.07;2.38;;;;;;;32.12;38.22;101143.25;10413640;28;20089;-71
2023/07/11 08:29:07;;;;;;;5.97;2.97;;;;;;;32.24;39.12;101141.72;10395302;28;20691;-73
2023/07/11 08:34:08;;;;;;;2.25;2.15;;;;;;;32.48;37.61;101160.69;10413988;28;20512;-71
2023/07/11 08:39:08;;;;;;;5.72;3.60;;;;;;;32.54;37.57;101157.34;10411665;28;20062;-71
2023/07/11 08:44:15;;;;;;;3.08;2.38;;;;;;;32.08;37.48;101141.47;10412442;28;20041;-64
2023/07/11 08:49:19;;;;;;;7.53;3.42;;;;;;;32.07;38.83;101162.22;10448451;28;20495;-72
2023/07/11 08:54:33;;;;;;;2.72;2.50;;;;;;;32.35;38.23;101156.94;10436092;28;20086;-70
2023/07/11 09:00:02;;;;;;;2.83;2.60;;;;;;;32.15;39.85;101156.56;10455933;28;20084;-72
2023/07/11 09:05:03;;;;;;;5.28;2.72;;;;;;;29.99;42.41;101169.41;10453570;28;20032;-70
2023/07/11 09:10:32;;;;;;;7.50;2.78;;;;;;;29.55;44.16;101170.34;10437702;28;20037;-70
2023/07/11 09:15:41;;;;;;;7.88;3.38;;;;;;;30.52;43.48;101154.47;10456418;28;20104;-72
2023/07/11 09:20:57;;;;;;;3.70;2.08;;;;;;;31.20;42.08;101143.66;10442299;28;20468;-74
2023/07/11 09:26:00;;;;;;;1.73;1.58;;;;;;;32.10;40.87;101141.94;10421527;28;20048;-73
2023/07/11 09:31:01;;;;;;;8.73;4.05;;;;;;;31.58;41.57;101142.94;10436663;28;20365;-74
2023/07/11 09:36:02;;;;;;;3.03;2.72;;;;;;;32.33;41.00;101136.88;10470383;28;20060;-70
2023/07/11 09:41:05;;;;;;;5.75;2.47;;;;;;;32.88;39.26;101141.44;10435090;28;20044;-73
2023/07/11 09:46:16;;;;;;;12.50;4.07;;;;;;;32.76;38.33;101133.75;10407042;28;20124;-70
2023/07/11 09:51:26;;;;;;;4.40;2.85;;;;;;;32.69;38.88;101143.91;10392873;28;20034;-71
2023/07/11 09:56:27;;;;;;;2.97;2.78;;;;;;;32.89;38.38;101137.44;10392780;28;20033;-69
2023/07/11 10:01:31;;;;;;;3.00;2.78;;;;;;;32.63;38.46;101130.06;10408217;28;20211;-72
2023/07/11 10:06:41;;;;;;;5.17;2.07;;;;;;;32.58;38.76;101121.03;10408452;28;20145;-71
2023/07/11 10:11:42;;;;;;;2.22;2.03;;;;;;;32.92;40.10;101124.72;10408302;28;20021;-72
2023/07/11 10:16:43;;;;;;;8.43;3.03;;;;;;;33.50;39.33;101132.09;10411403;28;20041;-71
2023/07/11 10:21:46;;;;;;;11.75;2.75;;;;;;;33.50;38.94;101125.66;10409561;28;20413;-71
2023/07/11 10:26:47;;;;;;;9.82;2.55;;;;;;;33.10;39.35;101115.84;10420091;28;20484;-71
2023/07/11 10:31:50;;;;;;;2.60;2.40;;;;;;;33.68;38.88;101117.88;10448694;28;20044;-71
2023/07/11 10:36:55;;;;;;;1.92;1.75;;;;;;;33.87;38.55;101114.50;10448335;28;20052;-71
2023/07/11 10:42:03;;;;;;;2.25;2.13;;;;;;;33.51;36.67;101110.47;10448591;28;20152;-71
2023/07/11 10:47:08;;;;;;;9.57;2.85;;;;;;;33.43;37.33;101108.56;10449947;28;20041;-70
2023/07/11 10:52:12;;;;;;;3.00;1.70;;;;;;;33.59;38.59;101100.31;10448750;28;20334;-71
2023/07/11 10:57:32;;;;;;;1.83;1.73;;;;;;;34.14;38.57;101104.53;10449357;28;20033;-72
2023/07/11 11:03:02;;;;;;;3.75;1.92;;;;;;;34.31;37.65;101095.06;10433976;28;20029;-71
2023/07/11 11:08:18;;;;;;;7.22;2.08;;;;;;;34.34;37.50;101102.78;10448252;28;20052;-72
2023/07/11 11:13:44;;;;;;;2.88;1.85;;;;;;;34.04;38.94;101103.03;10433568;28;20029;-71
2023/07/11 11:18:45;;;;;;;2.03;1.85;;;;;;;34.26;37.90;101098.91;10448406;28;20499;-70
2023/07/11 11:24:07;;;;;;;6.03;2.03;;;;;;;34.50;38.38;101089.63;10456475;28;20037;-70
2023/07/11 11:29:27;;;;;;;15.73;2.83;;;;;;;34.65;37.19;101094.53;10457597;28;20040;-74
2023/07/11 11:34:44;;;;;;;2.13;1.92;;;;;;;33.89;38.20;101087.69;10456877;28;20025;-71
2023/07/11 11:39:51;;;;;;;7.97;2.53;;;;;;;34.16;38.97;101082.53;10457437;28;20530;-70
2023/07/11 11:44:58;;;;;;;4.05;2.67;;;;;;;34.62;37.89;101083.16;10472293;28;20330;-72
2023/07/11 11:49:58;;;;;;;3.85;2.35;;;;;;;33.79;39.04;101074.94;10471982;28;20761;-71
2023/07/11 11:54:58;;;;;;;2.85;2.22;;;;;;;33.94;38.69;101087.44;10455647;28;20076;-71
2023/07/11 11:59:59;;;;;;;6.80;2.92;;;;;;;33.74;39.29;101077.16;10456447;28;20036;-73
2023/07/11 12:05:06;;;;;;;7.45;2.53;;;;;;;33.48;38.67;101074.66;10421114;28;20037;-70
2023/07/11 12:10:22;;;;;;;2.17;1.98;;;;;;;33.37;39.45;101074.25;10456163;28;20029;-71
2023/07/11 12:15:27;;;;;;;4.75;2.13;;;;;;;33.67;39.58;101058.06;10454443;28;20612;-69
2023/07/11 12:20:28;;;;;;;5.47;2.25;;;;;;;33.38;39.59;101069.47;10454138;28;20029;-71
2023/07/11 12:25:29;;;;;;;2.13;1.70;;;;;;;33.04;40.34;101061.09;10455112;28;20397;-69
2023/07/11 12:30:41;;;;;;;4.78;2.55;;;;;;;32.87;40.36;101064.88;10452919;28;20029;-70
2023/07/11 12:35:41;;;;;;;4.40;2.33;;;;;;;31.91;41.83;101063.94;10453557;28;20048;-71
2023/07/11 12:41:06;;;;;;;3.05;2.35;;;;;;;32.01;41.80;101063.56;10454028;28;20487;-71
2023/07/11 12:46:21;;;;;;;6.97;2.30;;;;;;;32.10;41.77;101055.91;10453964;28;20120;-71
2023/07/11 12:51:36;;;;;;;1.08;1.08;;;;;;;32.04;41.91;101040.47;10455833;28;20029;-72
2023/07/11 12:56:44;;;;;;;3.00;2.22;;;;;;;32.43;41.51;101038.41;10456109;28;20063;-72
2023/07/11 13:01:44;;;;;;;10.57;2.00;;;;;;;32.82;41.39;101041.81;10452938;28;20115;-71
2023/07/11 13:06:48;;;;;;;10.68;2.60;;;;;;;33.38;41.08;101032.97;10453963;28;20060;-71
2023/07/11 13:11:48;;;;;;;1.60;1.50;;;;;;;32.65;41.86;101042.81;10436436;28;20037;-71
2023/07/11 13:16:49;;;;;;;10.13;2.58;;;;;;;32.42;42.13;101040.34;10425705;28;20060;-71
2023/07/11 13:21:49;;;;;;;2.40;2.20;;;;;;;32.37;42.25;101037.75;10415021;28;20051;-71
2023/07/11 13:26:50;;;;;;;2.47;2.28;;;;;;;32.57;42.17;101036.09;10451385;28;20380;-69
2023/07/11 13:32:01;;;;;;;2.20;1.92;;;;;;;31.97;42.52;101031.75;10447942;28;20445;-71
2023/07/11 13:37:02;;;;;;;5.45;2.10;;;;;;;32.36;42.19;101041.72;10393294;28;20060;-71
2023/07/11 13:42:09;;;;;;;3.70;1.73;;;;;;;31.63;42.41;101025.19;10393825;28;20149;-73
2023/07/11 13:47:14;;;;;;;1.98;1.77;;;;;;;31.25;43.19;101023.19;10410379;28;20449;-70
2023/07/11 13:52:38;;;;;;;2.13;2.00;;;;;;;31.45;43.50;101024.44;10411312;28;20069;-72
2023/07/11 13:57:39;;;;;;;4.30;2.20;;;;;;;31.14;44.23;101013.50;10410545;28;20438;-71
2023/07/11 14:02:39;;;;;;;2.50;2.22;;;;;;;30.57;45.24;101024.94;10392011;28;20049;-73
2023/07/11 14:07:40;;;;;;;11.27;2.45;;;;;;;31.25;44.97;101013.97;10393170;28;20114;-71
2023/07/11 14:12:40;;;;;;;4.13;2.47;;;;;;;31.53;44.33;101017.19;10430587;28;20033;-72
2023/07/11 14:17:41;;;;;;;5.25;1.88;;;;;;;30.86;44.92;101015.06;10449238;28;20083;-73
2023/07/11 14:22:41;;;;;;;1.55;1.50;;;;;;;30.70;45.38;101017.53;10451940;28;20120;-72
2023/07/11 14:27:42;;;;;;;3.85;2.40;;;;;;;30.46;45.87;101001.28;10433007;28;20422;-72
2023/07/11 14:32:43;;;;;;;4.53;2.10;;;;;;;30.18;46.23;101004.34;10432624;28;20104;-70
2023/07/11 14:37:44;;;;;;;2.53;2.20;;;;;;;30.55;46.05;101013.28;10449574;28;20134;-74
2023/07/11 14:42:45;;;;;;;1.88;1.77;;;;;;;30.35;46.26;100998.81;10416803;28;20037;-73
2023/07/11 14:47:46;;;;;;;2.92;1.95;;;;;;;30.45;46.34;101002.44;10354444;28;20402;-73
2023/07/11 14:52:46;;;;;;;2.60;2.05;;;;;;;30.67;45.93;100996.66;10409617;28;20042;-73
2023/07/11 14:57:52;;;;;;;2.95;2.33;;;;;;;30.23;46.42;100984.69;10409026;28;20120;-73
2023/07/11 15:02:52;;;;;;;1.30;1.27;;;;;;;29.50;47.44;100991.88;10391741;28;20362;-74
2023/07/11 15:07:55;;;;;;;1.88;1.77;;;;;;;29.40;47.84;100974.28;10408568;28;20049;-74
2023/07/11 15:12:55;;;;;;;4.78;1.95;;;;;;;29.93;47.48;100974.44;10375138;28;20168;-72
2023/07/11 15:17:57;;;;;;;5.38;1.75;;;;;;;30.17;46.96;100960.00;10407656;28;20052;-73
2023/07/11 15:22:58;;;;;;;2.58;1.88;;;;;;;29.31;48.19;100969.81;10408592;28;20069;-72
2023/07/11 15:27:59;;;;;;;1.77;1.40;;;;;;;29.06;49.75;100968.56;10393106;28;20053;-73
2023/07/11 15:32:59;;;;;;;2.70;2.08;;;;;;;29.02;49.61;100962.00;10391201;28;20051;-72
2023/07/11 15:38:01;;;;;;;2.03;1.92;;;;;;;29.03;49.33;100970.03;10407250;28;20057;-72
2023/07/11 15:43:02;;;;;;;2.65;2.33;;;;;;;29.18;50.13;100960.41;10408262;28;20408;-73
2023/07/11 15:48:03;;;;;;;1.63;1.52;;;;;;;28.68;49.96;100966.19;10408460;28;20033;-71
2023/07/11 15:53:03;;;;;;;1.75;1.65;;;;;;;28.78;50.38;100954.78;10408139;28;20491;-74
2023/07/11 15:58:04;;;;;;;3.92;1.40;;;;;;;28.62;50.57;100947.94;10408595;28;20033;-73
2023/07/11 16:03:05;;;;;;;2.85;2.22;;;;;;;28.91;50.53;100947.50;10408255;28;20049;-73
2023/07/11 16:08:18;;;;;;;2.05;1.85;;;;;;;29.34;50.63;100936.53;10418303;28;20033;-73
2023/07/11 16:13:21;;;;;;;2.75;1.38;;;;;;;29.42;49.96;100932.13;10416037;28;20033;-72
2023/07/11 16:18:22;;;;;;;3.20;1.92;;;;;;;29.11;50.09;100923.81;10415323;28;20112;-73
2023/07/11 16:23:24;;;;;;;6.32;1.67;;;;;;;28.96;50.76;100922.25;10398291;28;20094;-72
2023/07/11 16:28:26;;;;;;;4.68;2.05;;;;;;;28.47;51.30;100924.94;10413404;28;20084;-74
2023/07/11 16:33:27;;;;;;;4.13;1.60;;;;;;;27.98;52.62;100918.31;10412997;28;20072;-72
2023/07/11 16:38:31;;;;;;;9.32;2.15;;;;;;;28.00;52.67;100910.44;10414352;28;20136;-73
2023/07/11 16:43:32;;;;;;;2.53;1.67;;;;;;;27.67;53.60;100900.63;10396213;28;20042;-73
2023/07/11 16:48:32;;;;;;;4.63;2.00;;;;;;;27.12;53.70;100902.31;10412967;28;20120;-72
2023/07/11 16:53:33;;;;;;;5.97;2.60;;;;;;;26.62;55.85;100902.16;10412007;28;20510;-73
2023/07/11 16:58:40;;;;;;;1.98;1.88;;;;;;;26.08;57.75;100900.00;10413143;28;20382;-73
2023/07/11 17:03:41;;;;;;;1.25;1.25;;;;;;;25.88;58.14;100909.47;10378990;28;20029;-72
2023/07/11 17:08:41;;;;;;;3.45;1.70;;;;;;;25.84;60.37;100906.44;10412811;28;20045;-73
2023/07/11 17:13:41;;;;;;;3.25;2.38;;;;;;;26.00;61.76;100903.44;10413188;28;20044;-73
2023/07/11 17:18:42;;;;;;;4.50;2.20;;;;;;;25.96;59.96;100892.13;10412163;28;20502;-73
2023/07/11 17:23:42;;;;;;;5.65;1.65;;;;;;;25.68;62.98;100893.88;10412834;28;20041;-73
2023/07/11 17:28:43;;;;;;;1.95;1.85;;;;;;;25.66;64.49;100898.94;10410997;28;20160;-73
2023/07/11 17:33:43;;;;;;;14.48;1.33;;;;;;;25.37;66.54;100887.97;10410609;28;20041;-73
2023/07/11 17:38:45;;;;;;;1.15;1.13;;;;;;;24.96;69.70;100893.97;10394192;28;20064;-75
2023/07/11 17:43:46;;;;;;;1.15;1.02;;;;;;;24.75;67.95;100894.16;10410452;28;20146;-74
2023/07/11 17:48:46;;;;;;;2.80;1.52;;;;;;;24.75;71.29;100891.38;10410472;28;20052;-74
2023/07/11 17:53:48;;;;;;;2.47;1.13;;;;;;;24.94;68.17;100883.16;10411404;28;20522;-72
2023/07/11 17:58:48;;;;;;;2.58;1.90;;;;;;;24.85;68.45;100884.09;10410395;28;20120;-72
2023/07/11 18:03:49;;;;;;;2.40;1.60;;;;;;;24.69;67.93;100888.97;10411639;28;20341;-72
2023/07/11 18:08:49;;;;;;;7.68;1.95;;;;;;;24.50;69.88;100862.00;10409828;28;20464;-73
2023/07/11 18:13:50;;;;;;;2.15;1.50;;;;;;;24.13;71.75;100873.69;10409262;28;20041;-74
2023/07/11 18:18:50;;;;;;;1.60;1.50;;;;;;;23.55;72.73;100867.97;10408703;28;20060;-74
2023/07/11 18:23:51;;;;;;;1.75;1.50;;;;;;;23.24;68.35;100867.28;10408629;28;20041;-73
2023/07/11 18:28:51;;;;;;;1.55;1.45;;;;;;;23.12;65.62;100857.38;10408719;28;20037;-72
2023/07/11 18:33:52;;;;;;;1.60;1.50;;;;;;;23.14;64.60;100865.41;10409162;28;20041;-73
2023/07/11 18:38:52;;;;;;;1.58;1.40;;;;;;;22.91;63.04;100831.75;10407652;28;20107;-71
2023/07/11 18:43:53;;;;;;;7.78;1.42;;;;;;;22.38;66.04;100836.03;10410653;28;20033;-72
2023/07/11 18:48:53;;;;;;;2.08;1.30;;;;;;;22.10;68.82;100849.25;10408755;28;20068;-71
2023/07/11 18:53:54;;;;;;;3.88;1.80;;;;;;;22.02;67.46;100856.16;10409072;28;20120;-71
2023/07/11 18:58:54;;;;;;;3.45;1.92;;;;;;;22.05;65.84;100838.22;10406543;28;20116;-70
2023/07/11 19:03:54;;;;;;;1.55;1.50;;;;;;;22.21;62.94;100825.28;10438080;28;20139;-73
2023/07/11 19:08:55;;;;;;;3.45;1.73;;;;;;;22.33;62.30;100836.84;10448300;28;20041;-68
2023/07/11 19:13:55;;;;;;;1.63;1.35;;;;;;;22.40;61.83;100842.94;10449009;28;20400;-68
2023/07/11 19:18:56;;;;;;;1.10;1.00;;;;;;;22.45;60.38;100826.34;10447805;28;20199;-66
2023/07/11 19:23:56;;;;;;;1.52;1.00;;;;;;;22.22;60.05;100826.94;10448749;28;20033;-65
2023/07/11 19:28:57;;;;;;;1.88;1.27;;;;;;;22.08;58.94;100812.84;10447158;28;20083;-64
2023/07/11 19:33:57;;;;;;;4.90;1.98;;;;;;;22.02;58.18;100798.25;10446832;28;20037;-64
2023/07/11 19:38:57;;;;;;;4.53;2.17;;;;;;;21.81;58.84;100804.84;10412693;28;20287;-67
2023/07/11 19:43:59;;;;;;;2.30;2.10;;;;;;;21.83;59.69;100791.63;10430494;28;20049;-64
2023/07/11 19:49:00;;;;;;;6.43;1.75;;;;;;;21.86;59.13;100788.31;10414940;28;20436;-66
2023/07/11 19:54:00;;;;;;;2.55;1.60;;;;;;;21.92;58.79;100797.41;10415021;28;20041;-66
2023/07/11 19:59:02;;;;;;;2.67;1.33;;;;;;;21.79;58.17;100791.34;10414948;28;20049;-67
2023/07/11 20:04:02;;;;;;;7.45;1.50;;;;;;;21.52;61.81;100788.84;10414171;28;20068;-65
2023/07/11 20:09:03;;;;;;;2.05;1.67;;;;;;;21.33;66.43;100774.72;10413173;28;20045;-65
2023/07/11 20:14:03;;;;;;;10.30;2.25;;;;;;;21.20;66.15;100783.50;10442933;28;20076;-76
2023/07/11 20:19:04;;;;;;;2.08;1.88;;;;;;;20.99;72.60;100801.88;10439429;28;20047;-74
2023/07/11 20:24:04;;;;;;;3.85;1.88;;;;;;;20.72;75.66;100812.22;10460012;28;20037;-73
2023/07/11 20:29:08;;;;;;;5.88;2.10;;;;;;;20.59;75.91;100819.03;10464882;28;20033;-74
2023/07/11 20:34:08;;;;;;;6.28;2.33;;;;;;;20.52;74.22;100818.44;10434534;28;20060;-73
2023/07/11 20:39:09;;;;;;;6.45;2.75;;;;;;;20.30;79.12;100804.78;10450891;28;20140;-75
2023/07/11 20:44:10;;;;;;;2.20;1.63;;;;;;;20.16;81.41;100815.41;10440657;28;20038;-74
2023/07/11 20:49:10;;;;;;;3.17;1.60;;;;;;;20.08;79.66;100807.66;10454743;28;20086;-74
2023/07/11 20:54:11;;;;;;;2.95;1.67;;;;;;;19.92;80.67;100799.28;10452478;28;20033;-72
2023/07/11 20:59:11;;;;;;;2.50;1.40;;;;;;;19.84;78.69;100785.19;10428563;28;20493;-73
2023/07/11 21:04:12;;;;;;;3.55;2.53;;;;;;;19.72;80.23;100805.44;10414075;28;20121;-73
2023/07/11 21:09:15;;;;;;;9.05;1.88;;;;;;;19.62;82.42;100802.56;10413775;28;20037;-75
2023/07/11 21:14:15;;;;;;;4.93;2.10;;;;;;;19.48;86.83;100804.06;10396738;28;20029;-75
2023/07/11 21:19:22;;;;;;;2.45;1.90;;;;;;;19.42;85.14;100810.59;10412391;28;20081;-75
2023/07/11 21:24:23;;;;;;;1.95;1.77;;;;;;;19.31;85.37;100814.31;10413692;28;20052;-74
2023/07/11 21:29:23;;;;;;;13.60;2.65;;;;;;;19.22;90.17;100822.19;10413018;28;20444;-75
2023/07/11 21:34:25;;;;;;;3.22;2.22;;;;;;;19.16;87.69;100818.53;10394749;28;20404;-74
2023/07/11 21:39:26;;;;;;;7.80;2.35;;;;;;;19.07;86.37;100811.00;10412880;28;20315;-74
2023/07/11 21:44:26;;;;;;;3.92;2.22;;;;;;;18.95;92.91;100813.88;10411306;28;20041;-75
2023/07/11 21:49:26;;;;;;;5.72;2.45;;;;;;;18.95;88.18;100814.72;10414903;28;20119;-73
2023/07/11 21:54:27;;;;;;;2.88;1.67;;;;;;;18.88;89.71;100826.97;10447815;28;20037;-73
2023/07/11 21:59:27;;;;;;;10.77;2.50;;;;;;;18.81;89.19;100821.66;10454677;28;20484;-73
2023/07/11 22:04:27;;;;;;;3.65;2.40;;;;;;;18.71;89.23;100830.56;10454954;28;20104;-74
2023/07/11 22:09:28;;;;;;;2.10;1.70;;;;;;;18.73;90.02;100828.44;10455537;28;20438;-75
2023/07/11 22:14:28;;;;;;;2.95;2.40;;;;;;;18.80;91.53;100829.06;10455853;28;20090;-75
2023/07/11 22:19:29;;;;;;;8.27;1.80;;;;;;;18.83;93.59;100815.94;10457147;28;20047;-73
2023/07/11 22:24:30;;;;;;;1.05;1.05;;;;;;;18.79;93.47;100819.19;10458318;28;20037;-74
2023/07/11 22:29:30;;;;;;;10.13;2.15;;;;;;;18.81;93.10;100806.03;10458235;28;20066;-76
2023/07/11 22:34:31;;;;;;;11.18;1.48;;;;;;;18.89;90.49;100803.91;10460052;28;20047;-74
2023/07/11 22:39:31;;;;;;;3.53;2.08;;;;;;;18.99;88.58;100806.81;10463071;28;20091;-74
2023/07/11 22:44:31;;;;;;;4.13;2.55;;;;;;;19.05;87.16;100805.78;10461823;28;20036;-74
2023/07/11 22:49:32;;;;;;;2.50;2.03;;;;;;;19.11;87.35;100803.91;10455678;28;20068;-73
2023/07/11 22:54:32;;;;;;;8.50;2.53;;;;;;;19.17;87.72;100805.63;10451896;28;20105;-75
2023/07/11 22:59:33;;;;;;;3.15;2.85;;;;;;;19.25;85.73;100806.00;10433455;28;20150;-74
2023/07/11 23:04:33;;;;;;;5.60;2.25;;;;;;;19.24;85.59;100804.38;10449628;28;20056;-72
2023/07/11 23:09:34;;;;;;;10.05;2.72;;;;;;;19.27;88.51;100819.47;10451596;28;20040;-74